sensor_id;sensor_type;location;lat;lon;timestamp;P1;durP1;ratioP1;P2;durP2;ratioP2
64199;SDS011;50516;52.272;5.136;2022-12-11T00:02:03;80.25;;;32.95;;
64199;SDS011;50516;52.272;5.136;2022-12-11T00:04:29;91.95;;;36.83;;
64199;SDS011;50516;52.272;5.136;2022-12-11T00:06:55;80.82;;;32.80;;
64199;SDS011;50516;52.272;5.136;2022-12-11T00:09:20;82.22;;;34.58;;
64199;SDS011;50516;52.272;5.136;2022-12-11T00:11:46;91.60;;;37.55;;
64199;SDS011;50516;52.272;5.136;2022-12-11T00:14:12;89.25;;;37.80;;
64199;SDS011;50516;52.272;5.136;2022-12-11T00:16:39;85.30;;;34.72;;
64199;SDS011;50516;52.272;5.136;2022-12-11T00:19:05;77.47;;;37.28;;
64199;SDS011;50516;52.272;5.136;2022-12-11T00:21:30;84.65;;;33.50;;
64199;SDS011;50516;52.272;5.136;2022-12-11T00:23:56;84.15;;;36.70;;
64199;SDS011;50516;52.272;5.136;2022-12-11T00:26:22;78.78;;;35.35;;
64199;SDS011;50516;52.272;5.136;2022-12-11T00:28:47;82.28;;;35.70;;
64199;SDS011;50516;52.272;5.136;2022-12-11T00:31:20;86.95;;;37.03;;
64199;SDS011;50516;52.272;5.136;2022-12-11T00:33:46;87.05;;;36.10;;
64199;SDS011;50516;52.272;5.136;2022-12-11T00:36:15;92.43;;;35.25;;
64199;SDS011;50516;52.272;5.136;2022-12-11T00:38:43;81.10;;;34.75;;
64199;SDS011;50516;52.272;5.136;2022-12-11T00:41:08;82.80;;;36.17;;
64199;SDS011;50516;52.272;5.136;2022-12-11T00:43:34;85.35;;;36.85;;
64199;SDS011;50516;52.272;5.136;2022-12-11T00:45:59;81.00;;;34.13;;
64199;SDS011;50516;52.272;5.136;2022-12-11T00:48:26;69.57;;;33.42;;
64199;SDS011;50516;52.272;5.136;2022-12-11T00:50:51;75.50;;;33.55;;
64199;SDS011;50516;52.272;5.136;2022-12-11T00:53:17;74.13;;;35.03;;
64199;SDS011;50516;52.272;5.136;2022-12-11T00:55:42;78.97;;;34.53;;
64199;SDS011;50516;52.272;5.136;2022-12-11T00:58:08;79.80;;;35.67;;
64199;SDS011;50516;52.272;5.136;2022-12-11T01:00:34;81.43;;;37.47;;
64199;SDS011;50516;52.272;5.136;2022-12-11T01:03:00;76.55;;;36.08;;
64199;SDS011;50516;52.272;5.136;2022-12-11T01:05:25;71.20;;;34.88;;
64199;SDS011;50516;52.272;5.136;2022-12-11T01:07:50;75.60;;;32.78;;
64199;SDS011;50516;52.272;5.136;2022-12-11T01:10:16;71.25;;;32.08;;
64199;SDS011;50516;52.272;5.136;2022-12-11T01:12:51;74.20;;;33.28;;
64199;SDS011;50516;52.272;5.136;2022-12-11T01:15:21;66.97;;;34.13;;
64199;SDS011;50516;52.272;5.136;2022-12-11T01:17:49;68.88;;;34.40;;
64199;SDS011;50516;52.272;5.136;2022-12-11T01:20:15;72.80;;;34.25;;
64199;SDS011;50516;52.272;5.136;2022-12-11T01:22:41;73.40;;;34.42;;
64199;SDS011;50516;52.272;5.136;2022-12-11T01:25:06;78.30;;;31.65;;
64199;SDS011;50516;52.272;5.136;2022-12-11T01:27:33;69.32;;;32.67;;
64199;SDS011;50516;52.272;5.136;2022-12-11T01:29:59;73.28;;;33.03;;
64199;SDS011;50516;52.272;5.136;2022-12-11T01:32:25;76.38;;;33.28;;
64199;SDS011;50516;52.272;5.136;2022-12-11T01:34:52;69.22;;;32.47;;
64199;SDS011;50516;52.272;5.136;2022-12-11T01:37:17;72.40;;;34.38;;
64199;SDS011;50516;52.272;5.136;2022-12-11T01:39:43;67.00;;;32.92;;
64199;SDS011;50516;52.272;5.136;2022-12-11T01:42:09;66.30;;;33.78;;
64199;SDS011;50516;52.272;5.136;2022-12-11T01:47:06;66.78;;;32.92;;
64199;SDS011;50516;52.272;5.136;2022-12-11T01:49:31;67.30;;;33.85;;
64199;SDS011;50516;52.272;5.136;2022-12-11T01:51:58;66.40;;;33.83;;
64199;SDS011;50516;52.272;5.136;2022-12-11T01:54:29;66.28;;;33.05;;
64199;SDS011;50516;52.272;5.136;2022-12-11T01:56:56;69.47;;;32.00;;
64199;SDS011;50516;52.272;5.136;2022-12-11T01:59:27;68.05;;;33.03;;
64199;SDS011;50516;52.272;5.136;2022-12-11T02:01:57;67.78;;;33.30;;
64199;SDS011;50516;52.272;5.136;2022-12-11T02:04:27;65.47;;;33.42;;
64199;SDS011;50516;52.272;5.136;2022-12-11T02:06:53;68.68;;;34.63;;
64199;SDS011;50516;52.272;5.136;2022-12-11T02:09:26;63.35;;;31.83;;
64199;SDS011;50516;52.272;5.136;2022-12-11T02:30:41;62.42;;;31.45;;
64199;SDS011;50516;52.272;5.136;2022-12-11T02:33:10;54.92;;;29.67;;
64199;SDS011;50516;52.272;5.136;2022-12-11T02:35:39;61.38;;;30.40;;
64199;SDS011;50516;52.272;5.136;2022-12-11T02:38:12;54.88;;;29.70;;
64199;SDS011;50516;52.272;5.136;2022-12-11T02:40:51;61.90;;;32.60;;
64199;SDS011;50516;52.272;5.136;2022-12-11T02:43:19;61.00;;;32.70;;
64199;SDS011;50516;52.272;5.136;2022-12-11T02:45:47;57.08;;;31.75;;
64199;SDS011;50516;52.272;5.136;2022-12-11T02:48:14;58.20;;;32.47;;
64199;SDS011;50516;52.272;5.136;2022-12-11T02:50:43;57.70;;;32.03;;
64199;SDS011;50516;52.272;5.136;2022-12-11T02:53:11;64.03;;;32.53;;
64199;SDS011;50516;52.272;5.136;2022-12-11T02:55:39;60.17;;;29.55;;
64199;SDS011;50516;52.272;5.136;2022-12-11T02:58:22;63.47;;;31.20;;
64199;SDS011;50516;52.272;5.136;2022-12-11T03:00:52;63.25;;;30.80;;
64199;SDS011;50516;52.272;5.136;2022-12-11T03:03:17;59.88;;;30.60;;
64199;SDS011;50516;52.272;5.136;2022-12-11T03:05:43;57.03;;;32.75;;
64199;SDS011;50516;52.272;5.136;2022-12-11T03:08:10;53.30;;;29.25;;
64199;SDS011;50516;52.272;5.136;2022-12-11T03:10:37;53.67;;;30.85;;
64199;SDS011;50516;52.272;5.136;2022-12-11T03:13:02;56.47;;;29.17;;
64199;SDS011;50516;52.272;5.136;2022-12-11T03:15:32;44.95;;;27.77;;
64199;SDS011;50516;52.272;5.136;2022-12-11T03:20:45;50.22;;;27.48;;
64199;SDS011;50516;52.272;5.136;2022-12-11T03:26:11;42.38;;;26.65;;
64199;SDS011;50516;52.272;5.136;2022-12-11T03:31:43;47.28;;;26.17;;
64199;SDS011;50516;52.272;5.136;2022-12-11T03:34:18;43.97;;;25.45;;
64199;SDS011;50516;52.272;5.136;2022-12-11T03:36:51;40.88;;;24.13;;
64199;SDS011;50516;52.272;5.136;2022-12-11T03:39:20;42.20;;;25.70;;
64199;SDS011;50516;52.272;5.136;2022-12-11T03:41:56;42.92;;;25.33;;
64199;SDS011;50516;52.272;5.136;2022-12-11T03:44:26;42.75;;;24.13;;
64199;SDS011;50516;52.272;5.136;2022-12-11T03:46:56;42.17;;;24.67;;
64199;SDS011;50516;52.272;5.136;2022-12-11T03:49:26;40.28;;;24.05;;
64199;SDS011;50516;52.272;5.136;2022-12-11T03:51:55;39.83;;;24.20;;
64199;SDS011;50516;52.272;5.136;2022-12-11T03:54:24;46.92;;;25.55;;
64199;SDS011;50516;52.272;5.136;2022-12-11T03:56:52;42.22;;;22.92;;
64199;SDS011;50516;52.272;5.136;2022-12-11T03:59:20;36.60;;;22.15;;
64199;SDS011;50516;52.272;5.136;2022-12-11T04:01:45;36.85;;;21.50;;
64199;SDS011;50516;52.272;5.136;2022-12-11T04:04:11;37.70;;;22.13;;
64199;SDS011;50516;52.272;5.136;2022-12-11T04:06:36;37.47;;;22.92;;
64199;SDS011;50516;52.272;5.136;2022-12-11T04:09:02;38.05;;;22.30;;
64199;SDS011;50516;52.272;5.136;2022-12-11T04:11:27;36.60;;;20.92;;
64199;SDS011;50516;52.272;5.136;2022-12-11T04:14:00;38.58;;;21.90;;
64199;SDS011;50516;52.272;5.136;2022-12-11T04:16:49;38.03;;;22.73;;
64199;SDS011;50516;52.272;5.136;2022-12-11T04:19:15;35.25;;;22.83;;
64199;SDS011;50516;52.272;5.136;2022-12-11T04:21:59;36.03;;;21.33;;
64199;SDS011;50516;52.272;5.136;2022-12-11T04:24:43;38.00;;;21.42;;
64199;SDS011;50516;52.272;5.136;2022-12-11T04:27:08;40.35;;;25.25;;
64199;SDS011;50516;52.272;5.136;2022-12-11T04:29:33;37.80;;;23.63;;
64199;SDS011;50516;52.272;5.136;2022-12-11T04:31:59;36.65;;;21.98;;
64199;SDS011;50516;52.272;5.136;2022-12-11T04:34:24;33.75;;;21.48;;
64199;SDS011;50516;52.272;5.136;2022-12-11T04:36:50;35.55;;;20.85;;
64199;SDS011;50516;52.272;5.136;2022-12-11T04:39:15;37.38;;;22.42;;
64199;SDS011;50516;52.272;5.136;2022-12-11T04:41:41;34.00;;;20.77;;
64199;SDS011;50516;52.272;5.136;2022-12-11T04:44:06;36.75;;;22.45;;
64199;SDS011;50516;52.272;5.136;2022-12-11T04:46:32;35.13;;;21.70;;
64199;SDS011;50516;52.272;5.136;2022-12-11T04:48:58;35.67;;;20.70;;
64199;SDS011;50516;52.272;5.136;2022-12-11T04:51:24;32.88;;;19.73;;
64199;SDS011;50516;52.272;5.136;2022-12-11T04:53:51;31.83;;;20.80;;
64199;SDS011;50516;52.272;5.136;2022-12-11T04:56:17;35.70;;;20.65;;
64199;SDS011;50516;52.272;5.136;2022-12-11T04:58:43;38.65;;;21.98;;
64199;SDS011;50516;52.272;5.136;2022-12-11T05:01:10;32.90;;;20.90;;
64199;SDS011;50516;52.272;5.136;2022-12-11T05:03:40;39.85;;;22.08;;
64199;SDS011;50516;52.272;5.136;2022-12-11T05:06:06;38.53;;;22.90;;
64199;SDS011;50516;52.272;5.136;2022-12-11T05:08:33;31.90;;;20.23;;
64199;SDS011;50516;52.272;5.136;2022-12-11T05:11:01;38.20;;;21.90;;
64199;SDS011;50516;52.272;5.136;2022-12-11T05:13:29;35.40;;;22.17;;
64199;SDS011;50516;52.272;5.136;2022-12-11T05:15:55;35.60;;;21.58;;
64199;SDS011;50516;52.272;5.136;2022-12-11T05:18:22;35.90;;;21.55;;
64199;SDS011;50516;52.272;5.136;2022-12-11T05:20:58;37.13;;;22.60;;
64199;SDS011;50516;52.272;5.136;2022-12-11T05:23:25;36.05;;;22.42;;
64199;SDS011;50516;52.272;5.136;2022-12-11T05:25:54;34.20;;;21.00;;
64199;SDS011;50516;52.272;5.136;2022-12-11T05:28:22;37.60;;;22.35;;
64199;SDS011;50516;52.272;5.136;2022-12-11T05:30:53;34.70;;;21.13;;
64199;SDS011;50516;52.272;5.136;2022-12-11T05:33:26;35.85;;;21.83;;
64199;SDS011;50516;52.272;5.136;2022-12-11T05:35:52;38.03;;;21.90;;
64199;SDS011;50516;52.272;5.136;2022-12-11T05:38:17;37.58;;;22.13;;
64199;SDS011;50516;52.272;5.136;2022-12-11T05:40:43;39.85;;;23.25;;
64199;SDS011;50516;52.272;5.136;2022-12-11T05:43:08;38.10;;;22.73;;
64199;SDS011;50516;52.272;5.136;2022-12-11T05:45:34;38.58;;;21.80;;
64199;SDS011;50516;52.272;5.136;2022-12-11T05:47:59;38.42;;;22.17;;
64199;SDS011;50516;52.272;5.136;2022-12-11T05:50:25;40.38;;;23.63;;
64199;SDS011;50516;52.272;5.136;2022-12-11T05:52:50;35.97;;;22.00;;
64199;SDS011;50516;52.272;5.136;2022-12-11T05:55:15;38.35;;;23.10;;
64199;SDS011;50516;52.272;5.136;2022-12-11T05:57:41;36.53;;;23.23;;
64199;SDS011;50516;52.272;5.136;2022-12-11T06:00:06;38.83;;;23.67;;
64199;SDS011;50516;52.272;5.136;2022-12-11T06:02:33;41.45;;;25.02;;
64199;SDS011;50516;52.272;5.136;2022-12-11T06:05:00;41.10;;;24.15;;
64199;SDS011;50516;52.272;5.136;2022-12-11T06:07:25;37.90;;;24.15;;
64199;SDS011;50516;52.272;5.136;2022-12-11T06:09:50;40.80;;;25.38;;
64199;SDS011;50516;52.272;5.136;2022-12-11T06:12:16;40.20;;;24.73;;
64199;SDS011;50516;52.272;5.136;2022-12-11T06:14:41;36.42;;;23.77;;
64199;SDS011;50516;52.272;5.136;2022-12-11T06:17:07;38.92;;;22.75;;
64199;SDS011;50516;52.272;5.136;2022-12-11T06:19:32;39.80;;;24.20;;
64199;SDS011;50516;52.272;5.136;2022-12-11T06:21:57;42.67;;;24.80;;
64199;SDS011;50516;52.272;5.136;2022-12-11T06:24:23;41.30;;;24.38;;
64199;SDS011;50516;52.272;5.136;2022-12-11T06:26:48;42.28;;;24.15;;
64199;SDS011;50516;52.272;5.136;2022-12-11T06:29:13;39.63;;;23.30;;
64199;SDS011;50516;52.272;5.136;2022-12-11T06:31:39;39.00;;;23.80;;
64199;SDS011;50516;52.272;5.136;2022-12-11T06:34:04;41.55;;;25.20;;
64199;SDS011;50516;52.272;5.136;2022-12-11T06:36:30;38.42;;;23.80;;
64199;SDS011;50516;52.272;5.136;2022-12-11T06:38:55;39.85;;;24.35;;
64199;SDS011;50516;52.272;5.136;2022-12-11T06:41:20;39.25;;;22.73;;
64199;SDS011;50516;52.272;5.136;2022-12-11T06:43:46;39.15;;;24.05;;
64199;SDS011;50516;52.272;5.136;2022-12-11T06:46:12;40.40;;;23.58;;
64199;SDS011;50516;52.272;5.136;2022-12-11T06:48:40;38.92;;;23.17;;
64199;SDS011;50516;52.272;5.136;2022-12-11T06:51:12;39.38;;;23.83;;
64199;SDS011;50516;52.272;5.136;2022-12-11T06:53:39;42.47;;;24.35;;
64199;SDS011;50516;52.272;5.136;2022-12-11T06:56:09;34.60;;;21.55;;
64199;SDS011;50516;52.272;5.136;2022-12-11T06:58:36;33.75;;;21.55;;
64199;SDS011;50516;52.272;5.136;2022-12-11T07:01:03;38.33;;;22.95;;
64199;SDS011;50516;52.272;5.136;2022-12-11T07:03:29;39.83;;;24.33;;
64199;SDS011;50516;52.272;5.136;2022-12-11T07:06:00;39.65;;;24.20;;
64199;SDS011;50516;52.272;5.136;2022-12-11T07:08:27;39.38;;;22.08;;
64199;SDS011;50516;52.272;5.136;2022-12-11T07:10:53;39.67;;;23.85;;
64199;SDS011;50516;52.272;5.136;2022-12-11T07:13:18;39.05;;;23.50;;
64199;SDS011;50516;52.272;5.136;2022-12-11T07:15:43;39.63;;;22.80;;
64199;SDS011;50516;52.272;5.136;2022-12-11T07:18:09;38.47;;;23.95;;
64199;SDS011;50516;52.272;5.136;2022-12-11T07:20:34;35.50;;;22.67;;
64199;SDS011;50516;52.272;5.136;2022-12-11T07:23:00;37.85;;;22.98;;
64199;SDS011;50516;52.272;5.136;2022-12-11T07:25:25;36.15;;;22.25;;
64199;SDS011;50516;52.272;5.136;2022-12-11T07:27:50;36.35;;;22.55;;
64199;SDS011;50516;52.272;5.136;2022-12-11T07:30:16;36.63;;;21.65;;
64199;SDS011;50516;52.272;5.136;2022-12-11T07:32:41;34.58;;;21.08;;
64199;SDS011;50516;52.272;5.136;2022-12-11T07:35:07;34.22;;;20.35;;
64199;SDS011;50516;52.272;5.136;2022-12-11T07:37:33;33.45;;;21.63;;
64199;SDS011;50516;52.272;5.136;2022-12-11T07:39:58;36.45;;;22.50;;
64199;SDS011;50516;52.272;5.136;2022-12-11T07:42:23;36.47;;;22.20;;
64199;SDS011;50516;52.272;5.136;2022-12-11T07:44:49;34.28;;;20.90;;
64199;SDS011;50516;52.272;5.136;2022-12-11T07:47:14;34.65;;;21.38;;
64199;SDS011;50516;52.272;5.136;2022-12-11T07:49:39;39.00;;;22.35;;
64199;SDS011;50516;52.272;5.136;2022-12-11T07:52:05;36.97;;;22.10;;
64199;SDS011;50516;52.272;5.136;2022-12-11T07:54:30;37.17;;;23.17;;
64199;SDS011;50516;52.272;5.136;2022-12-11T07:56:56;39.72;;;24.20;;
64199;SDS011;50516;52.272;5.136;2022-12-11T07:59:21;40.25;;;24.80;;
64199;SDS011;50516;52.272;5.136;2022-12-11T08:01:46;41.22;;;22.40;;
64199;SDS011;50516;52.272;5.136;2022-12-11T08:04:12;37.45;;;22.38;;
64199;SDS011;50516;52.272;5.136;2022-12-11T08:06:39;43.75;;;25.13;;
64199;SDS011;50516;52.272;5.136;2022-12-11T08:09:07;45.55;;;23.65;;
64199;SDS011;50516;52.272;5.136;2022-12-11T08:11:34;42.47;;;25.15;;
64199;SDS011;50516;52.272;5.136;2022-12-11T08:13:59;41.92;;;24.08;;
64199;SDS011;50516;52.272;5.136;2022-12-11T08:16:25;45.53;;;25.23;;
64199;SDS011;50516;52.272;5.136;2022-12-11T08:18:51;35.65;;;22.15;;
64199;SDS011;50516;52.272;5.136;2022-12-11T08:21:17;37.33;;;23.00;;
64199;SDS011;50516;52.272;5.136;2022-12-11T08:23:45;37.28;;;22.42;;
64199;SDS011;50516;52.272;5.136;2022-12-11T08:26:12;36.35;;;22.02;;
64199;SDS011;50516;52.272;5.136;2022-12-11T08:28:39;36.95;;;22.08;;
64199;SDS011;50516;52.272;5.136;2022-12-11T08:31:05;35.00;;;21.00;;
64199;SDS011;50516;52.272;5.136;2022-12-11T08:33:32;34.83;;;21.60;;
64199;SDS011;50516;52.272;5.136;2022-12-11T08:36:02;41.25;;;24.13;;
64199;SDS011;50516;52.272;5.136;2022-12-11T08:38:32;36.95;;;22.90;;
64199;SDS011;50516;52.272;5.136;2022-12-11T08:40:57;39.97;;;22.58;;
64199;SDS011;50516;52.272;5.136;2022-12-11T08:43:23;40.67;;;24.05;;
64199;SDS011;50516;52.272;5.136;2022-12-11T08:45:49;38.80;;;22.90;;
64199;SDS011;50516;52.272;5.136;2022-12-11T08:48:14;39.30;;;23.00;;
64199;SDS011;50516;52.272;5.136;2022-12-11T08:50:41;42.40;;;24.70;;
64199;SDS011;50516;52.272;5.136;2022-12-11T08:53:06;40.30;;;24.08;;
64199;SDS011;50516;52.272;5.136;2022-12-11T08:55:32;41.65;;;24.08;;
64199;SDS011;50516;52.272;5.136;2022-12-11T08:57:58;43.00;;;24.02;;
64199;SDS011;50516;52.272;5.136;2022-12-11T09:00:23;41.33;;;24.92;;
64199;SDS011;50516;52.272;5.136;2022-12-11T09:02:48;41.80;;;25.10;;
64199;SDS011;50516;52.272;5.136;2022-12-11T09:05:14;44.55;;;26.20;;
64199;SDS011;50516;52.272;5.136;2022-12-11T09:07:39;46.25;;;26.23;;
64199;SDS011;50516;52.272;5.136;2022-12-11T09:10:05;42.78;;;24.30;;
64199;SDS011;50516;52.272;5.136;2022-12-11T09:12:32;42.50;;;25.40;;
64199;SDS011;50516;52.272;5.136;2022-12-11T09:14:58;42.05;;;26.40;;
64199;SDS011;50516;52.272;5.136;2022-12-11T09:17:24;38.75;;;23.60;;
64199;SDS011;50516;52.272;5.136;2022-12-11T09:19:49;37.38;;;22.55;;
64199;SDS011;50516;52.272;5.136;2022-12-11T09:22:14;42.40;;;25.08;;
64199;SDS011;50516;52.272;5.136;2022-12-11T09:24:40;43.72;;;25.05;;
64199;SDS011;50516;52.272;5.136;2022-12-11T09:27:05;37.22;;;23.15;;
64199;SDS011;50516;52.272;5.136;2022-12-11T09:29:31;39.88;;;23.92;;
64199;SDS011;50516;52.272;5.136;2022-12-11T09:31:57;40.05;;;24.88;;
64199;SDS011;50516;52.272;5.136;2022-12-11T09:34:22;42.47;;;25.02;;
64199;SDS011;50516;52.272;5.136;2022-12-11T09:36:48;41.95;;;23.45;;
64199;SDS011;50516;52.272;5.136;2022-12-11T09:39:14;38.42;;;22.90;;
64199;SDS011;50516;52.272;5.136;2022-12-11T09:44:45;42.88;;;24.48;;
64199;SDS011;50516;52.272;5.136;2022-12-11T09:47:33;43.17;;;24.55;;
64199;SDS011;50516;52.272;5.136;2022-12-11T09:55:43;41.30;;;23.27;;
64199;SDS011;50516;52.272;5.136;2022-12-11T09:58:43;37.47;;;24.02;;
64199;SDS011;50516;52.272;5.136;2022-12-11T10:07:14;37.63;;;24.20;;
64199;SDS011;50516;52.272;5.136;2022-12-11T10:09:59;37.00;;;22.15;;
64199;SDS011;50516;52.272;5.136;2022-12-11T10:17:37;39.90;;;24.83;;
64199;SDS011;50516;52.272;5.136;2022-12-11T10:22:59;36.70;;;21.92;;
64199;SDS011;50516;52.272;5.136;2022-12-11T10:25:33;39.80;;;25.88;;
64199;SDS011;50516;52.272;5.136;2022-12-11T10:28:08;38.97;;;24.58;;
64199;SDS011;50516;52.272;5.136;2022-12-11T10:36:26;44.60;;;25.10;;
64199;SDS011;50516;52.272;5.136;2022-12-11T10:39:11;42.63;;;25.77;;
64199;SDS011;50516;52.272;5.136;2022-12-11T10:41:40;42.22;;;25.08;;
64199;SDS011;50516;52.272;5.136;2022-12-11T10:44:18;39.35;;;24.45;;
64199;SDS011;50516;52.272;5.136;2022-12-11T10:46:48;40.80;;;25.90;;
64199;SDS011;50516;52.272;5.136;2022-12-11T10:49:28;40.65;;;25.58;;
64199;SDS011;50516;52.272;5.136;2022-12-11T10:51:56;36.90;;;23.65;;
64199;SDS011;50516;52.272;5.136;2022-12-11T10:56:53;42.90;;;26.17;;
64199;SDS011;50516;52.272;5.136;2022-12-11T10:59:23;36.60;;;26.05;;
64199;SDS011;50516;52.272;5.136;2022-12-11T11:01:55;42.15;;;25.80;;
64199;SDS011;50516;52.272;5.136;2022-12-11T11:04:31;40.28;;;26.83;;
64199;SDS011;50516;52.272;5.136;2022-12-11T11:07:01;38.90;;;24.48;;
64199;SDS011;50516;52.272;5.136;2022-12-11T11:09:38;40.53;;;25.75;;
64199;SDS011;50516;52.272;5.136;2022-12-11T11:12:15;39.65;;;23.60;;
64199;SDS011;50516;52.272;5.136;2022-12-11T11:17:30;38.83;;;25.30;;
64199;SDS011;50516;52.272;5.136;2022-12-11T11:19:58;40.70;;;25.05;;
64199;SDS011;50516;52.272;5.136;2022-12-11T11:22:30;41.10;;;25.10;;
64199;SDS011;50516;52.272;5.136;2022-12-11T11:24:57;42.03;;;26.40;;
64199;SDS011;50516;52.272;5.136;2022-12-11T11:29:50;39.58;;;24.52;;
64199;SDS011;50516;52.272;5.136;2022-12-11T11:32:19;39.03;;;25.60;;
64199;SDS011;50516;52.272;5.136;2022-12-11T11:34:48;39.03;;;24.77;;
64199;SDS011;50516;52.272;5.136;2022-12-11T11:37:21;38.03;;;24.25;;
64199;SDS011;50516;52.272;5.136;2022-12-11T11:39:58;42.20;;;25.77;;
64199;SDS011;50516;52.272;5.136;2022-12-11T11:42:36;36.13;;;23.48;;
64199;SDS011;50516;52.272;5.136;2022-12-11T11:45:21;35.78;;;22.40;;
64199;SDS011;50516;52.272;5.136;2022-12-11T11:48:02;41.17;;;24.25;;
64199;SDS011;50516;52.272;5.136;2022-12-11T11:50:37;39.88;;;24.65;;
64199;SDS011;50516;52.272;5.136;2022-12-11T11:53:15;37.15;;;23.17;;
64199;SDS011;50516;52.272;5.136;2022-12-11T11:58:42;42.45;;;24.40;;
64199;SDS011;50516;52.272;5.136;2022-12-11T12:01:14;38.58;;;23.48;;
64199;SDS011;50516;52.272;5.136;2022-12-11T12:03:42;40.58;;;25.60;;
64199;SDS011;50516;52.272;5.136;2022-12-11T12:14:08;38.13;;;22.98;;
64199;SDS011;50516;52.272;5.136;2022-12-11T12:22:32;36.38;;;23.95;;
64199;SDS011;50516;52.272;5.136;2022-12-11T12:25:18;37.00;;;22.75;;
64199;SDS011;50516;52.272;5.136;2022-12-11T12:30:23;36.03;;;23.00;;
64199;SDS011;50516;52.272;5.136;2022-12-11T12:36:03;37.10;;;21.50;;
64199;SDS011;50516;52.272;5.136;2022-12-11T12:41:37;35.63;;;21.23;;
64199;SDS011;50516;52.272;5.136;2022-12-11T12:49:13;39.38;;;22.80;;
64199;SDS011;50516;52.272;5.136;2022-12-11T12:51:44;31.75;;;20.70;;
64199;SDS011;50516;52.272;5.136;2022-12-11T12:54:11;34.78;;;21.45;;
64199;SDS011;50516;52.272;5.136;2022-12-11T12:56:41;33.97;;;20.27;;
64199;SDS011;50516;52.272;5.136;2022-12-11T12:59:22;35.83;;;21.25;;
64199;SDS011;50516;52.272;5.136;2022-12-11T13:01:50;33.72;;;20.95;;
64199;SDS011;50516;52.272;5.136;2022-12-11T13:04:28;33.55;;;19.88;;
64199;SDS011;50516;52.272;5.136;2022-12-11T13:06:59;32.92;;;20.58;;
64199;SDS011;50516;52.272;5.136;2022-12-11T13:09:36;30.70;;;20.10;;
64199;SDS011;50516;52.272;5.136;2022-12-11T13:12:01;34.67;;;21.02;;
64199;SDS011;50516;52.272;5.136;2022-12-11T13:14:37;32.42;;;19.65;;
64199;SDS011;50516;52.272;5.136;2022-12-11T13:19:44;38.55;;;21.40;;
64199;SDS011;50516;52.272;5.136;2022-12-11T13:24:47;34.63;;;21.02;;
64199;SDS011;50516;52.272;5.136;2022-12-11T13:27:42;34.47;;;21.00;;
64199;SDS011;50516;52.272;5.136;2022-12-11T13:32:39;34.00;;;20.02;;
64199;SDS011;50516;52.272;5.136;2022-12-11T13:35:24;35.80;;;21.20;;
64199;SDS011;50516;52.272;5.136;2022-12-11T13:37:50;36.67;;;22.45;;
64199;SDS011;50516;52.272;5.136;2022-12-11T13:40:27;31.75;;;19.80;;
64199;SDS011;50516;52.272;5.136;2022-12-11T13:43:02;37.40;;;22.95;;
64199;SDS011;50516;52.272;5.136;2022-12-11T13:45:43;46.75;;;25.50;;
64199;SDS011;50516;52.272;5.136;2022-12-11T13:53:16;43.95;;;25.15;;
64199;SDS011;50516;52.272;5.136;2022-12-11T13:55:42;48.10;;;25.90;;
64199;SDS011;50516;52.272;5.136;2022-12-11T13:58:15;41.25;;;25.75;;
64199;SDS011;50516;52.272;5.136;2022-12-11T14:00:42;43.72;;;26.27;;
64199;SDS011;50516;52.272;5.136;2022-12-11T14:03:21;45.35;;;26.27;;
64199;SDS011;50516;52.272;5.136;2022-12-11T14:05:47;43.22;;;23.70;;
64199;SDS011;50516;52.272;5.136;2022-12-11T14:08:16;45.28;;;25.55;;
64199;SDS011;50516;52.272;5.136;2022-12-11T14:10:49;45.70;;;25.60;;
64199;SDS011;50516;52.272;5.136;2022-12-11T14:13:24;48.13;;;27.85;;
64199;SDS011;50516;52.272;5.136;2022-12-11T14:15:51;42.35;;;25.60;;
64199;SDS011;50516;52.272;5.136;2022-12-11T14:18:25;42.47;;;24.92;;
64199;SDS011;50516;52.272;5.136;2022-12-11T14:20:57;41.08;;;23.42;;
64199;SDS011;50516;52.272;5.136;2022-12-11T14:23:25;44.15;;;24.65;;
64199;SDS011;50516;52.272;5.136;2022-12-11T14:26:00;50.95;;;25.33;;
64199;SDS011;50516;52.272;5.136;2022-12-11T14:28:41;41.78;;;24.23;;
64199;SDS011;50516;52.272;5.136;2022-12-11T14:31:07;43.92;;;24.23;;
64199;SDS011;50516;52.272;5.136;2022-12-11T14:33:37;43.35;;;25.05;;
64199;SDS011;50516;52.272;5.136;2022-12-11T14:36:07;42.92;;;24.27;;
64199;SDS011;50516;52.272;5.136;2022-12-11T14:38:34;44.50;;;25.63;;
64199;SDS011;50516;52.272;5.136;2022-12-11T14:41:16;44.35;;;25.08;;
64199;SDS011;50516;52.272;5.136;2022-12-11T14:43:54;47.60;;;26.02;;
64199;SDS011;50516;52.272;5.136;2022-12-11T14:46:37;41.45;;;24.02;;
64199;SDS011;50516;52.272;5.136;2022-12-11T14:51:49;45.88;;;27.27;;
64199;SDS011;50516;52.272;5.136;2022-12-11T14:54:37;46.92;;;25.98;;
64199;SDS011;50516;52.272;5.136;2022-12-11T14:57:07;50.97;;;26.17;;
64199;SDS011;50516;52.272;5.136;2022-12-11T14:59:43;51.83;;;25.80;;
64199;SDS011;50516;52.272;5.136;2022-12-11T15:02:20;43.40;;;25.40;;
64199;SDS011;50516;52.272;5.136;2022-12-11T15:04:55;39.92;;;23.30;;
64199;SDS011;50516;52.272;5.136;2022-12-11T15:07:43;47.38;;;23.83;;
64199;SDS011;50516;52.272;5.136;2022-12-11T15:10:20;47.97;;;26.63;;
64199;SDS011;50516;52.272;5.136;2022-12-11T15:12:48;45.70;;;25.17;;
64199;SDS011;50516;52.272;5.136;2022-12-11T15:15:14;56.22;;;28.65;;
64199;SDS011;50516;52.272;5.136;2022-12-11T15:17:40;50.65;;;26.17;;
64199;SDS011;50516;52.272;5.136;2022-12-11T15:20:07;50.30;;;25.35;;
64199;SDS011;50516;52.272;5.136;2022-12-11T15:22:43;45.17;;;25.08;;
64199;SDS011;50516;52.272;5.136;2022-12-11T15:25:16;45.97;;;26.33;;
64199;SDS011;50516;52.272;5.136;2022-12-11T15:27:48;45.67;;;24.75;;
64199;SDS011;50516;52.272;5.136;2022-12-11T15:35:34;48.08;;;26.38;;
64199;SDS011;50516;52.272;5.136;2022-12-11T15:38:00;50.38;;;24.92;;
64199;SDS011;50516;52.272;5.136;2022-12-11T15:40:26;47.25;;;27.42;;
64199;SDS011;50516;52.272;5.136;2022-12-11T15:42:52;51.95;;;27.65;;
64199;SDS011;50516;52.272;5.136;2022-12-11T15:45:28;49.70;;;26.35;;
64199;SDS011;50516;52.272;5.136;2022-12-11T15:47:53;44.30;;;25.13;;
64199;SDS011;50516;52.272;5.136;2022-12-11T15:50:23;47.55;;;27.73;;
64199;SDS011;50516;52.272;5.136;2022-12-11T15:52:51;62.13;;;31.00;;
64199;SDS011;50516;52.272;5.136;2022-12-11T15:55:18;49.53;;;27.98;;
64199;SDS011;50516;52.272;5.136;2022-12-11T15:57:55;48.83;;;27.63;;
64199;SDS011;50516;52.272;5.136;2022-12-11T16:00:23;49.90;;;28.10;;
64199;SDS011;50516;52.272;5.136;2022-12-11T16:02:51;44.80;;;25.75;;
64199;SDS011;50516;52.272;5.136;2022-12-11T16:05:16;47.00;;;27.13;;
64199;SDS011;50516;52.272;5.136;2022-12-11T16:07:42;48.25;;;25.13;;
64199;SDS011;50516;52.272;5.136;2022-12-11T16:10:12;52.72;;;28.23;;
64199;SDS011;50516;52.272;5.136;2022-12-11T16:12:39;49.13;;;28.45;;
64199;SDS011;50516;52.272;5.136;2022-12-11T16:15:04;48.47;;;26.95;;
64199;SDS011;50516;52.272;5.136;2022-12-11T16:17:30;49.58;;;28.38;;
64199;SDS011;50516;52.272;5.136;2022-12-11T16:19:56;46.90;;;26.70;;
64199;SDS011;50516;52.272;5.136;2022-12-11T16:22:21;53.88;;;27.20;;
64199;SDS011;50516;52.272;5.136;2022-12-11T16:24:47;50.13;;;28.63;;
64199;SDS011;50516;52.272;5.136;2022-12-11T16:27:12;52.92;;;29.75;;
64199;SDS011;50516;52.272;5.136;2022-12-11T16:29:39;48.97;;;27.63;;